sensor_id;sensor_type;location;lat;lon;timestamp;temperature;humidity
63407;SHT31;49543;45.892;10.838;2022-11-13T07:05:30;11.41;82.05
63407;SHT31;49543;45.892;10.838;2022-11-13T07:07:56;11.55;81.68
63407;SHT31;49543;45.892;10.838;2022-11-13T07:10:21;11.78;81.61
63407;SHT31;49543;45.892;10.838;2022-11-13T07:12:46;11.82;81.26
63407;SHT31;49543;45.892;10.838;2022-11-13T07:15:12;12.00;79.62
63407;SHT31;49543;45.892;10.838;2022-11-13T10:30:20;24.08;48.17
63407;SHT31;49543;45.892;10.838;2022-11-13T10:32:45;24.13;47.59
63407;SHT31;49543;45.892;10.838;2022-11-13T10:38:02;23.23;50.20
63407;SHT31;49543;45.892;10.838;2022-11-13T10:40:33;22.92;50.04
63407;SHT31;49543;45.892;10.838;2022-11-13T10:45:51;22.02;53.37
63407;SHT31;49543;45.892;10.838;2022-11-13T10:48:22;21.83;53.18
63407;SHT31;49543;45.892;10.838;2022-11-13T10:51:04;21.57;53.39
63407;SHT31;49543;45.892;10.838;2022-11-13T10:53:38;21.11;56.01
63407;SHT31;49543;45.892;10.838;2022-11-13T10:59:18;20.56;56.84
63407;SHT31;49543;45.892;10.838;2022-11-13T11:01:46;20.16;55.52
63407;SHT31;49543;45.892;10.838;2022-11-13T11:04:21;20.16;53.87
63407;SHT31;49543;45.892;10.838;2022-11-13T11:06:48;20.07;53.90
63407;SHT31;49543;45.892;10.838;2022-11-13T11:09:31;20.04;59.12
63407;SHT31;49543;45.892;10.838;2022-11-13T11:28:38;19.96;58.99
63407;SHT31;49543;45.892;10.838;2022-11-13T11:31:22;19.46;60.72
63407;SHT31;49543;45.892;10.838;2022-11-13T11:33:56;19.72;61.16
63407;SHT31;49543;45.892;10.838;2022-11-13T11:36:45;20.04;59.98
63407;SHT31;49543;45.892;10.838;2022-11-13T11:47:22;20.58;57.80
63407;SHT31;49543;45.892;10.838;2022-11-13T11:49:48;20.69;57.12
63407;SHT31;49543;45.892;10.838;2022-11-13T11:55:33;21.04;55.55
63407;SHT31;49543;45.892;10.838;2022-11-13T12:01:06;21.74;55.14
63407;SHT31;49543;45.892;10.838;2022-11-13T12:04:01;21.66;53.79
63407;SHT31;49543;45.892;10.838;2022-11-13T12:07:28;21.81;54.27
63407;SHT31;49543;45.892;10.838;2022-11-13T12:09:40;22.18;54.49
63407;SHT31;49543;45.892;10.838;2022-11-13T12:18:33;22.71;54.50
63407;SHT31;49543;45.892;10.838;2022-11-13T12:23:12;22.64;54.59
63407;SHT31;49543;45.892;10.838;2022-11-13T12:25:45;21.13;56.53
63407;SHT31;49543;45.892;10.838;2022-11-13T12:28:40;19.61;60.13
63407;SHT31;49543;45.892;10.838;2022-11-13T12:34:06;19.38;61.07
63407;SHT31;49543;45.892;10.838;2022-11-13T12:36:33;19.29;60.69
63407;SHT31;49543;45.892;10.838;2022-11-13T12:39:21;18.96;64.28
63407;SHT31;49543;45.892;10.838;2022-11-13T12:44:27;18.55;63.43
63407;SHT31;49543;45.892;10.838;2022-11-13T12:46:56;18.43;63.91
63407;SHT31;49543;45.892;10.838;2022-11-13T12:49:33;18.36;65.40
63407;SHT31;49543;45.892;10.838;2022-11-13T12:52:16;18.35;66.76
63407;SHT31;49543;45.892;10.838;2022-11-13T12:54:42;18.25;67.56
63407;SHT31;49543;45.892;10.838;2022-11-13T12:59:48;17.91;65.71
63407;SHT31;49543;45.892;10.838;2022-11-13T13:10:34;17.50;68.07
63407;SHT31;49543;45.892;10.838;2022-11-13T13:13:17;17.35;69.75
63407;SHT31;49543;45.892;10.838;2022-11-13T13:15:55;17.33;69.58
63407;SHT31;49543;45.892;10.838;2022-11-13T13:18:34;17.29;69.83
63407;SHT31;49543;45.892;10.838;2022-11-13T13:21:11;17.07;68.70
63407;SHT31;49543;45.892;10.838;2022-11-13T13:23:43;17.08;69.00
63407;SHT31;49543;45.892;10.838;2022-11-13T13:28:47;17.14;68.61
63407;SHT31;49543;45.892;10.838;2022-11-13T13:37:03;17.07;67.69
63407;SHT31;49543;45.892;10.838;2022-11-13T13:42:45;16.71;70.31
63407;SHT31;49543;45.892;10.838;2022-11-13T13:48:19;16.64;70.62
63407;SHT31;49543;45.892;10.838;2022-11-13T13:50:47;16.57;71.49
63407;SHT31;49543;45.892;10.838;2022-11-13T13:53:16;16.56;71.80
63407;SHT31;49543;45.892;10.838;2022-11-13T13:55:48;16.52;70.83
63407;SHT31;49543;45.892;10.838;2022-11-13T13:58:18;16.56;69.35
63407;SHT31;49543;45.892;10.838;2022-11-13T14:00:56;16.64;68.08
63407;SHT31;49543;45.892;10.838;2022-11-13T14:03:23;16.56;69.43
63407;SHT31;49543;45.892;10.838;2022-11-13T14:05:49;16.60;70.25
63407;SHT31;49543;45.892;10.838;2022-11-13T14:08:16;16.66;70.21
63407;SHT31;49543;45.892;10.838;2022-11-13T14:10:42;16.67;69.21
63407;SHT31;49543;45.892;10.838;2022-11-13T14:13:21;16.74;69.28
63407;SHT31;49543;45.892;10.838;2022-11-13T14:15:47;16.77;67.85
63407;SHT31;49543;45.892;10.838;2022-11-13T14:18:16;16.77;68.39
63407;SHT31;49543;45.892;10.838;2022-11-13T14:20:52;16.77;70.87
63407;SHT31;49543;45.892;10.838;2022-11-13T14:23:28;16.45;72.39
63407;SHT31;49543;45.892;10.838;2022-11-13T14:25:54;16.47;73.04
63407;SHT31;49543;45.892;10.838;2022-11-13T14:28:22;16.46;73.32
63407;SHT31;49543;45.892;10.838;2022-11-13T14:31:05;16.49;71.95
63407;SHT31;49543;45.892;10.838;2022-11-13T14:33:36;16.49;70.34
63407;SHT31;49543;45.892;10.838;2022-11-13T14:36:02;16.40;71.70
63407;SHT31;49543;45.892;10.838;2022-11-13T14:38:34;16.39;73.16
63407;SHT31;49543;45.892;10.838;2022-11-13T14:41:01;16.37;73.32
63407;SHT31;49543;45.892;10.838;2022-11-13T14:43:29;16.37;72.60
63407;SHT31;49543;45.892;10.838;2022-11-13T14:46:00;16.37;72.33
63407;SHT31;49543;45.892;10.838;2022-11-13T14:48:32;16.34;72.61
63407;SHT31;49543;45.892;10.838;2022-11-13T14:51:00;16.33;72.83
63407;SHT31;49543;45.892;10.838;2022-11-13T14:53:33;16.20;73.24
63407;SHT31;49543;45.892;10.838;2022-11-13T14:58:33;16.15;70.46
63407;SHT31;49543;45.892;10.838;2022-11-13T15:01:14;16.13;71.71
63407;SHT31;49543;45.892;10.838;2022-11-13T15:03:41;16.19;73.45
63407;SHT31;49543;45.892;10.838;2022-11-13T15:08:38;16.19;73.14
63407;SHT31;49543;45.892;10.838;2022-11-13T15:11:04;16.12;73.75
63407;SHT31;49543;45.892;10.838;2022-11-13T15:13:29;16.10;73.51
63407;SHT31;49543;45.892;10.838;2022-11-13T15:15:54;16.10;72.92
63407;SHT31;49543;45.892;10.838;2022-11-13T15:18:20;16.04;72.31
63407;SHT31;49543;45.892;10.838;2022-11-13T15:20:45;15.94;72.82
63407;SHT31;49543;45.892;10.838;2022-11-13T15:23:13;15.81;73.28
63407;SHT31;49543;45.892;10.838;2022-11-13T15:25:40;15.74;72.70
63407;SHT31;49543;45.892;10.838;2022-11-13T15:28:05;15.72;73.07
63407;SHT31;49543;45.892;10.838;2022-11-13T15:30:31;15.64;73.30
63407;SHT31;49543;45.892;10.838;2022-11-13T15:32:56;15.58;73.73
63407;SHT31;49543;45.892;10.838;2022-11-13T15:35:23;15.53;73.98
63407;SHT31;49543;45.892;10.838;2022-11-13T15:37:48;15.50;71.73
63407;SHT31;49543;45.892;10.838;2022-11-13T15:40:14;15.43;71.67
63407;SHT31;49543;45.892;10.838;2022-11-13T15:42:41;15.39;73.23
63407;SHT31;49543;45.892;10.838;2022-11-13T15:45:13;15.33;73.77
63407;SHT31;49543;45.892;10.838;2022-11-13T15:47:38;15.26;73.69
63407;SHT31;49543;45.892;10.838;2022-11-13T15:50:04;15.20;73.65
63407;SHT31;49543;45.892;10.838;2022-11-13T15:52:34;15.19;73.28
63407;SHT31;49543;45.892;10.838;2022-11-13T15:55:01;15.03;73.90
63407;SHT31;49543;45.892;10.838;2022-11-13T15:57:28;14.93;73.74
63407;SHT31;49543;45.892;10.838;2022-11-13T15:59:54;14.85;72.26
63407;SHT31;49543;45.892;10.838;2022-11-13T16:02:20;14.71;72.01
63407;SHT31;49543;45.892;10.838;2022-11-13T16:04:46;14.71;71.81
63407;SHT31;49543;45.892;10.838;2022-11-13T16:07:27;14.57;72.60
63407;SHT31;49543;45.892;10.838;2022-11-13T16:09:55;14.51;72.67
63407;SHT31;49543;45.892;10.838;2022-11-13T16:12:21;14.57;71.50
63407;SHT31;49543;45.892;10.838;2022-11-13T16:14:46;14.72;71.78
63407;SHT31;49543;45.892;10.838;2022-11-13T16:17:14;14.88;72.32
63407;SHT31;49543;45.892;10.838;2022-11-13T16:19:44;14.93;72.41
63407;SHT31;49543;45.892;10.838;2022-11-13T16:22:17;14.92;72.17
63407;SHT31;49543;45.892;10.838;2022-11-13T16:24:42;14.77;73.00
63407;SHT31;49543;45.892;10.838;2022-11-13T16:27:12;14.77;73.00
63407;SHT31;49543;45.892;10.838;2022-11-13T16:29:38;14.69;72.21
63407;SHT31;49543;45.892;10.838;2022-11-13T16:32:03;14.47;73.77
63407;SHT31;49543;45.892;10.838;2022-11-13T16:34:29;14.37;73.77
63407;SHT31;49543;45.892;10.838;2022-11-13T16:36:54;14.50;73.78
63407;SHT31;49543;45.892;10.838;2022-11-13T16:39:20;14.38;74.09
63407;SHT31;49543;45.892;10.838;2022-11-13T16:41:45;14.37;71.78
63407;SHT31;49543;45.892;10.838;2022-11-13T16:44:11;14.26;72.37
63407;SHT31;49543;45.892;10.838;2022-11-13T16:46:38;14.27;72.77
63407;SHT31;49543;45.892;10.838;2022-11-13T16:49:11;14.24;73.69
63407;SHT31;49543;45.892;10.838;2022-11-13T16:51:36;14.30;74.23
63407;SHT31;49543;45.892;10.838;2022-11-13T16:54:02;14.37;73.36
63407;SHT31;49543;45.892;10.838;2022-11-13T16:56:28;14.37;73.37
63407;SHT31;49543;45.892;10.838;2022-11-13T16:58:55;14.41;74.65
63407;SHT31;49543;45.892;10.838;2022-11-13T17:01:20;14.43;75.25
63407;SHT31;49543;45.892;10.838;2022-11-13T17:03:49;14.40;76.15
63407;SHT31;49543;45.892;10.838;2022-11-13T17:06:20;14.38;75.43
63407;SHT31;49543;45.892;10.838;2022-11-13T17:08:49;14.30;75.68
63407;SHT31;49543;45.892;10.838;2022-11-13T17:11:15;14.31;75.93
63407;SHT31;49543;45.892;10.838;2022-11-13T17:13:40;14.29;76.43
63407;SHT31;49543;45.892;10.838;2022-11-13T17:16:08;14.31;76.35
63407;SHT31;49543;45.892;10.838;2022-11-13T17:18:37;14.30;76.33
63407;SHT31;49543;45.892;10.838;2022-11-13T17:21:02;14.31;75.63
63407;SHT31;49543;45.892;10.838;2022-11-13T17:23:28;14.31;74.81
63407;SHT31;49543;45.892;10.838;2022-11-13T17:25:53;14.30;75.32
63407;SHT31;49543;45.892;10.838;2022-11-13T17:28:19;14.16;76.95
63407;SHT31;49543;45.892;10.838;2022-11-13T17:30:45;14.27;76.81
63407;SHT31;49543;45.892;10.838;2022-11-13T17:35:36;14.36;76.58
63407;SHT31;49543;45.892;10.838;2022-11-13T17:38:17;14.36;76.19
63407;SHT31;49543;45.892;10.838;2022-11-13T17:40:42;14.41;77.44
63407;SHT31;49543;45.892;10.838;2022-11-13T17:43:08;14.40;77.37
63407;SHT31;49543;45.892;10.838;2022-11-13T17:45:36;14.31;76.62
63407;SHT31;49543;45.892;10.838;2022-11-13T17:48:02;14.34;75.81
63407;SHT31;49543;45.892;10.838;2022-11-13T17:50:27;14.37;75.88
63407;SHT31;49543;45.892;10.838;2022-11-13T17:53:16;14.40;76.13
63407;SHT31;49543;45.892;10.838;2022-11-13T17:55:41;14.44;76.12
63407;SHT31;49543;45.892;10.838;2022-11-13T17:58:07;14.44;75.48
63407;SHT31;49543;45.892;10.838;2022-11-13T18:00:32;14.43;75.43
63407;SHT31;49543;45.892;10.838;2022-11-13T18:02:57;14.40;76.22
63407;SHT31;49543;45.892;10.838;2022-11-13T18:05:23;14.38;76.06
63407;SHT31;49543;45.892;10.838;2022-11-13T18:07:48;14.30;76.52
63407;SHT31;49543;45.892;10.838;2022-11-13T18:10:14;14.33;77.40
63407;SHT31;49543;45.892;10.838;2022-11-13T18:12:39;14.31;76.60
63407;SHT31;49543;45.892;10.838;2022-11-13T18:15:05;14.30;75.96
63407;SHT31;49543;45.892;10.838;2022-11-13T18:17:30;14.27;76.77
63407;SHT31;49543;45.892;10.838;2022-11-13T18:19:56;14.31;76.87
63407;SHT31;49543;45.892;10.838;2022-11-13T18:22:21;14.33;76.87
63407;SHT31;49543;45.892;10.838;2022-11-13T18:24:47;14.31;76.39
63407;SHT31;49543;45.892;10.838;2022-11-13T18:27:12;14.31;76.38
63407;SHT31;49543;45.892;10.838;2022-11-13T18:29:38;14.31;76.51
63407;SHT31;49543;45.892;10.838;2022-11-13T18:32:05;14.29;76.35
63407;SHT31;49543;45.892;10.838;2022-11-13T18:34:31;14.31;75.95
63407;SHT31;49543;45.892;10.838;2022-11-13T18:36:56;14.27;76.34
63407;SHT31;49543;45.892;10.838;2022-11-13T18:39:23;14.26;77.17
63407;SHT31;49543;45.892;10.838;2022-11-13T18:41:48;14.26;76.09
63407;SHT31;49543;45.892;10.838;2022-11-13T18:44:14;14.23;76.24
63407;SHT31;49543;45.892;10.838;2022-11-13T18:46:40;14.24;76.28
63407;SHT31;49543;45.892;10.838;2022-11-13T18:49:05;14.29;77.20
63407;SHT31;49543;45.892;10.838;2022-11-13T18:51:31;14.31;76.78
63407;SHT31;49543;45.892;10.838;2022-11-13T18:54:01;14.29;76.90
63407;SHT31;49543;45.892;10.838;2022-11-13T18:56:28;14.26;77.02
63407;SHT31;49543;45.892;10.838;2022-11-13T18:58:55;14.22;77.27
63407;SHT31;49543;45.892;10.838;2022-11-13T19:01:26;14.27;77.42
63407;SHT31;49543;45.892;10.838;2022-11-13T19:03:53;14.34;77.18
63407;SHT31;49543;45.892;10.838;2022-11-13T19:06:21;14.29;76.98
63407;SHT31;49543;45.892;10.838;2022-11-13T19:08:52;14.27;77.45
63407;SHT31;49543;45.892;10.838;2022-11-13T19:11:18;14.17;75.98
63407;SHT31;49543;45.892;10.838;2022-11-13T19:13:45;14.10;76.84
63407;SHT31;49543;45.892;10.838;2022-11-13T19:16:13;14.06;77.33
63407;SHT31;49543;45.892;10.838;2022-11-13T19:18:41;14.06;78.08
63407;SHT31;49543;45.892;10.838;2022-11-13T19:21:12;14.08;77.71
63407;SHT31;49543;45.892;10.838;2022-11-13T19:23:38;14.10;78.02
63407;SHT31;49543;45.892;10.838;2022-11-13T19:26:04;14.14;78.53
63407;SHT31;49543;45.892;10.838;2022-11-13T19:28:30;14.13;79.10
63407;SHT31;49543;45.892;10.838;2022-11-13T19:30:56;14.03;79.65
63407;SHT31;49543;45.892;10.838;2022-11-13T19:33:22;14.08;79.19
63407;SHT31;49543;45.892;10.838;2022-11-13T19:35:48;14.06;78.72
63407;SHT31;49543;45.892;10.838;2022-11-13T19:38:14;14.12;77.72
63407;SHT31;49543;45.892;10.838;2022-11-13T19:40:43;14.12;77.63
63407;SHT31;49543;45.892;10.838;2022-11-13T19:43:09;14.06;77.75
63407;SHT31;49543;45.892;10.838;2022-11-13T19:45:35;14.06;78.16
63407;SHT31;49543;45.892;10.838;2022-11-13T19:48:00;14.09;78.52
63407;SHT31;49543;45.892;10.838;2022-11-13T19:50:25;14.14;78.56
63407;SHT31;49543;45.892;10.838;2022-11-13T19:52:51;14.19;78.68
63407;SHT31;49543;45.892;10.838;2022-11-13T19:55:17;14.13;79.09
63407;SHT31;49543;45.892;10.838;2022-11-13T19:57:42;14.09;79.17
63407;SHT31;49543;45.892;10.838;2022-11-13T20:00:09;14.08;78.89
63407;SHT31;49543;45.892;10.838;2022-11-13T20:02:34;14.09;79.31
63407;SHT31;49543;45.892;10.838;2022-11-13T20:04:59;14.08;79.28
63407;SHT31;49543;45.892;10.838;2022-11-13T20:07:25;14.02;79.15
63407;SHT31;49543;45.892;10.838;2022-11-13T20:09:50;13.92;79.81
63407;SHT31;49543;45.892;10.838;2022-11-13T20:12:16;13.95;79.71
63407;SHT31;49543;45.892;10.838;2022-11-13T20:14:41;13.99;79.63
63407;SHT31;49543;45.892;10.838;2022-11-13T20:17:06;13.93;79.96
63407;SHT31;49543;45.892;10.838;2022-11-13T20:19:32;14.02;79.99
63407;SHT31;49543;45.892;10.838;2022-11-13T20:21:57;13.93;79.94
63407;SHT31;49543;45.892;10.838;2022-11-13T20:24:24;13.98;80.06
63407;SHT31;49543;45.892;10.838;2022-11-13T20:26:49;13.98;80.17
63407;SHT31;49543;45.892;10.838;2022-11-13T20:29:14;14.02;80.29
63407;SHT31;49543;45.892;10.838;2022-11-13T20:31:40;13.99;80.03
63407;SHT31;49543;45.892;10.838;2022-11-13T20:34:05;13.99;80.19
63407;SHT31;49543;45.892;10.838;2022-11-13T20:36:31;14.01;80.33
63407;SHT31;49543;45.892;10.838;2022-11-13T20:38:56;13.98;81.17
63407;SHT31;49543;45.892;10.838;2022-11-13T20:41:23;13.95;81.71
63407;SHT31;49543;45.892;10.838;2022-11-13T20:43:50;13.87;82.43
63407;SHT31;49543;45.892;10.838;2022-11-13T20:46:16;13.82;83.28
63407;SHT31;49543;45.892;10.838;2022-11-13T20:48:43;13.79;83.47
63407;SHT31;49543;45.892;10.838;2022-11-13T20:51:15;13.74;83.85
63407;SHT31;49543;45.892;10.838;2022-11-13T20:53:41;13.65;84.02
63407;SHT31;49543;45.892;10.838;2022-11-13T20:56:07;13.64;84.14
63407;SHT31;49543;45.892;10.838;2022-11-13T20:58:33;13.59;84.60
63407;SHT31;49543;45.892;10.838;2022-11-13T21:01:04;13.69;84.72
63407;SHT31;49543;45.892;10.838;2022-11-13T21:03:29;13.64;84.78
63407;SHT31;49543;45.892;10.838;2022-11-13T21:05:55;13.48;85.12
63407;SHT31;49543;45.892;10.838;2022-11-13T21:08:20;13.57;84.86
63407;SHT31;49543;45.892;10.838;2022-11-13T21:10:46;13.64;84.76
63407;SHT31;49543;45.892;10.838;2022-11-13T21:13:11;13.59;85.16
63407;SHT31;49543;45.892;10.838;2022-11-13T21:15:37;13.68;85.07
63407;SHT31;49543;45.892;10.838;2022-11-13T21:18:03;13.74;84.93
63407;SHT31;49543;45.892;10.838;2022-11-13T21:20:28;13.76;85.11
63407;SHT31;49543;45.892;10.838;2022-11-13T21:22:54;13.79;84.97
63407;SHT31;49543;45.892;10.838;2022-11-13T21:25:19;13.85;84.53
63407;SHT31;49543;45.892;10.838;2022-11-13T21:27:46;13.85;84.15
63407;SHT31;49543;45.892;10.838;2022-11-13T21:30:12;13.81;84.04
63407;SHT31;49543;45.892;10.838;2022-11-13T21:32:38;13.82;84.62
63407;SHT31;49543;45.892;10.838;2022-11-13T21:35:04;13.75;84.67
63407;SHT31;49543;45.892;10.838;2022-11-13T21:37:31;13.72;85.28
63407;SHT31;49543;45.892;10.838;2022-11-13T21:39:57;13.64;85.88
63407;SHT31;49543;45.892;10.838;2022-11-13T21:42:22;13.57;86.20
63407;SHT31;49543;45.892;10.838;2022-11-13T21:44:48;13.57;86.26
63407;SHT31;49543;45.892;10.838;2022-11-13T21:47:13;13.51;86.44
63407;SHT31;49543;45.892;10.838;2022-11-13T21:49:39;13.55;86.71
63407;SHT31;49543;45.892;10.838;2022-11-13T21:52:04;13.43;86.76
63407;SHT31;49543;45.892;10.838;2022-11-13T21:54:30;13.50;86.84
63407;SHT31;49543;45.892;10.838;2022-11-13T21:56:55;13.48;86.24
63407;SHT31;49543;45.892;10.838;2022-11-13T21:59:21;13.46;86.13
63407;SHT31;49543;45.892;10.838;2022-11-13T22:01:46;13.43;86.38
63407;SHT31;49543;45.892;10.838;2022-11-13T22:04:11;13.47;86.64
63407;SHT31;49543;45.892;10.838;2022-11-13T22:06:37;13.47;87.00
63407;SHT31;49543;45.892;10.838;2022-11-13T22:09:05;13.47;87.13
63407;SHT31;49543;45.892;10.838;2022-11-13T22:11:33;13.36;87.56
63407;SHT31;49543;45.892;10.838;2022-11-13T22:13:59;13.33;88.05
63407;SHT31;49543;45.892;10.838;2022-11-13T22:16:27;13.28;88.48
63407;SHT31;49543;45.892;10.838;2022-11-13T22:18:54;13.34;88.58
63407;SHT31;49543;45.892;10.838;2022-11-13T22:21:20;13.37;88.54
63407;SHT31;49543;45.892;10.838;2022-11-13T22:23:46;13.37;88.36
63407;SHT31;49543;45.892;10.838;2022-11-13T22:26:13;13.43;88.39
63407;SHT31;49543;45.892;10.838;2022-11-13T22:28:40;13.38;87.98
63407;SHT31;49543;45.892;10.838;2022-11-13T22:31:07;13.37;87.57
63407;SHT31;49543;45.892;10.838;2022-11-13T22:33:34;13.28;88.02
63407;SHT31;49543;45.892;10.838;2022-11-13T22:36:05;13.27;88.32
63407;SHT31;49543;45.892;10.838;2022-11-13T22:38:34;13.31;88.39
63407;SHT31;49543;45.892;10.838;2022-11-13T22:41:05;13.31;88.41
63407;SHT31;49543;45.892;10.838;2022-11-13T22:43:32;13.30;88.73
63407;SHT31;49543;45.892;10.838;2022-11-13T22:46:06;13.31;88.77
